Flight Track Log - Related Links

Times and Time Zones

All times are in EDT time to prevent confusion due to time zone crossing. See the UAL4202 flight status page for this flight to view local times or setup timezone preferences in your user account.

Time Position Orientation Groundspeed Altitude Reporting Facility
EDT Latitude Longitude Course Direction KTS MPH feet Rate Location/Type
Tue 09:22:19 PM 38.7250 -90.2356 99° East 182 209 2,600  Level FAA TRACON SMA TRACON (SMA)
Tue 09:22:38 PM 38.7222 -90.2117 98° East 209 241 2,900 1,105 Climbing FAA TRACON SMA TRACON (SMA)
Tue 09:22:57 PM 38.7192 -90.1847 98° East 240 276 3,300 2,100 Climbing FAA TRACON SMA TRACON (SMA)
Tue 09:23:18 PM 38.7150 -90.1492 99° East 263 303 4,300 2,488 Climbing FAA TRACON SMA TRACON (SMA)
Tue 09:23:38 PM 38.7153 -90.1192 89° East 272 313 5,000 2,308 Climbing FAA TRACON SMA TRACON (SMA)
Tue 09:23:57 PM 38.7175 -90.0886 85° East 280 322 5,800 2,850 Climbing FAA TRACON SMA TRACON (SMA)
Tue 09:24:00 PM 38.7560 -89.9486 87° East  Level FlightAware Approximate
Tue 09:24:18 PM 38.7217 -90.0497 82° East 285 328 6,900  Level FAA TRACON SMA TRACON (SMA)
Tue 09:24:38 PM 38.7247 -90.0183 83° East 289 333 7,600 2,000 Climbing FAA TRACON SMA TRACON (SMA)
Tue 09:24:57 PM 38.7283 -89.9864 82° East 293 337 8,200 2,100 Climbing FAA TRACON SMA TRACON (SMA)
Tue 09:25:00 PM 38.7614 -89.8090 87° East  Level FlightAware Approximate
Tue 09:25:18 PM 38.7333 -89.9458 81° East 300 345 9,000  Level FAA TRACON SMA TRACON (SMA)
Tue 09:25:38 PM 38.7369 -89.9119 82° East 309 356 9,500 1,538 Climbing FAA TRACON SMA TRACON (SMA)
Tue 09:25:57 PM 38.7408 -89.8775 82° East 316 364 10,000 1,350 Climbing FAA TRACON SMA TRACON (SMA)
Tue 09:26:00 PM 38.7666 -89.6694 87° East  Level FlightAware Approximate
Tue 09:26:18 PM 38.7458 -89.8328 82° East 328 377 10,400  Level FAA TRACON SMA TRACON (SMA)
Tue 09:26:38 PM 38.7494 -89.7950 83° East 344 396 10,600 615 Climbing FAA TRACON SMA TRACON (SMA)
Tue 09:26:57 PM 38.7547 -89.7553 80° East 362 417 10,800 900 Climbing FAA TRACON SMA TRACON (SMA)
Tue 09:27:00 PM 38.7854 -89.5230 84° East  Level FlightAware Approximate
Tue 09:27:18 PM 38.7603 -89.7044 82° East 375 432 11,200  Level FAA TRACON SMA TRACON (SMA)
Tue 09:27:38 PM 38.7653 -89.6633 81° East 379 436 11,700 1,385 Climbing FAA TRACON SMA TRACON (SMA)
Tue 09:27:57 PM 38.7694 -89.6217 83° East 383 441 12,100 1,500 Climbing FAA TRACON SMA TRACON (SMA)
Tue 09:28:18 PM 38.7758 -89.5694 81° East 387 445 12,700 1,463 Climbing FAA TRACON SMA TRACON (SMA)
Tue 09:28:38 PM 38.7806 -89.5269 82° East 389 448 13,100 1,385 Climbing FAA TRACON SMA TRACON (SMA)
Tue 09:28:57 PM 38.7856 -89.4847 81° East 391 450 13,600 1,500 Climbing FAA TRACON SMA TRACON (SMA)
Tue 09:29:18 PM 38.7925 -89.4311 81° East 396 456 14,100 1,317 Climbing FAA TRACON SMA TRACON (SMA)
Tue 09:29:38 PM 38.7983 -89.3881 80° East 399 459 14,500 1,231 Climbing FAA TRACON SMA TRACON (SMA)
Tue 09:29:57 PM 38.8058 -89.3444 78° East 403 464 14,900 1,350 Climbing FAA TRACON SMA TRACON (SMA)
Tue 09:30:18 PM 38.8114 -89.2897 83° East 405 466 15,400 1,317 Climbing FAA TRACON SMA TRACON (SMA)
Tue 09:30:38 PM 38.8183 -89.2456 79° East 408 470 15,800 1,200 Climbing FAA TRACON SMA TRACON (SMA)
Tue 09:30:58 PM 38.8242 -89.2017 80° East 410 472 16,200 1,500 Climbing FAA TRACON SMA TRACON (SMA)
Tue 09:31:18 PM 38.8325 -89.1456 79° East 413 475 16,800 1,538 Climbing FAA TRACON SMA TRACON (SMA)
Tue 09:31:37 PM 38.8389 -89.1008 80° East 415 478 17,200 900 Climbing FAA TRACON SMA TRACON (SMA)
Tue 09:31:58 PM 38.8419 -89.0786 80° East 416 479 17,400 1,154 Climbing FAA TRACON SMA TRACON (SMA)
Tue 09:32:29 PM 38.8508 -89.0428 72° East 418 481 18,200 1,253 Climbing Kansas City Center
Tue 09:33:29 PM 38.8669 -88.9119 81° East 422 486 19,300 1,122 Climbing Kansas City Center
Tue 09:34:32 PM 38.8903 -88.7275 81° East 431 496 20,500 1,122 Climbing Kansas City Center
Tue 09:35:32 PM 38.9119 -88.5681 80° East 439 505 21,600 1,140 Climbing Kansas City Center
Tue 09:36:33 PM 38.9394 -88.4131 77° East 442 509 22,800 1,148 Climbing Kansas City Center
Tue 09:37:27 PM 38.9722 -88.2956 70° East 440 506 23,800 1,200 Climbing Indianapolis Center
Tue 09:38:28 PM 39.0153 -88.1439 70° East 446 513 25,100 1,328 Climbing Indianapolis Center
Tue 09:39:29 PM 39.0564 -87.9936 71° East 444 511 26,500 1,366 Climbing Indianapolis Center
Tue 09:40:31 PM 39.0975 -87.8467 70° East 440 506 27,900 1,268 Climbing Indianapolis Center
Tue 09:41:32 PM 39.1453 -87.7056 66° East 431 496 29,100 1,328 Climbing Indianapolis Center
Tue 09:42:33 PM 39.2011 -87.5353 67° East 429 494 30,600 1,377 Climbing Indianapolis Center
Tue 09:43:34 PM 39.2511 -87.3928 66° East 433 498 31,900 1,366 Climbing Indianapolis Center
Tue 09:44:36 PM 39.3083 -87.2550 62° Northeast 433 498 33,400 1,415 Climbing Indianapolis Center
Tue 09:45:37 PM 39.3647 -87.1208 61° Northeast 424 488 34,800 787 Climbing Indianapolis Center
Tue 09:46:38 PM 39.4219 -86.9833 62° Northeast 433 498 35,000 98 Climbing Indianapolis Center
Tue 09:47:39 PM 39.4828 -86.8353 62° Northeast 461 531 35,000  Level Indianapolis Center
Tue 09:48:41 PM 39.5458 -86.6839 62° Northeast 474 545 35,000  Level Indianapolis Center
Tue 09:49:42 PM 39.6078 -86.5286 63° Northeast 481 554 35,000  Level Indianapolis Center
Tue 09:50:43 PM 39.6708 -86.3756 62° Northeast 479 551 35,000  Level Indianapolis Center
Tue 09:51:44 PM 39.7308 -86.2236 63° Northeast 473 544 35,000  Level Indianapolis Center
Tue 09:52:45 PM 39.7919 -86.0725 62° Northeast 472 543 35,000  Level Indianapolis Center
Tue 09:53:47 PM 39.8542 -85.9200 62° Northeast 473 544 35,000  Level Indianapolis Center
Tue 09:54:48 PM 39.9147 -85.7667 63° Northeast 474 545 35,000  Level Indianapolis Center
Tue 09:55:49 PM 39.9761 -85.6114 63° Northeast 477 549 35,000  Level Indianapolis Center
Tue 09:56:50 PM 40.0383 -85.4567 62° Northeast 477 549 35,000  Level Indianapolis Center
Tue 09:57:51 PM 40.1086 -85.2744 63° Northeast 478 550 35,000  Level Indianapolis Center
Tue 09:58:53 PM 40.1700 -85.1164 63° Northeast 482 555 35,000 -49 Level Indianapolis Center
Tue 09:59:54 PM 40.2322 -84.9572 63° Northeast 485 558 34,900  Descending Indianapolis Center
Tue 10:00:55 PM 40.2947 -84.7972 63° Northeast 487 560 35,000 49 Climbing Indianapolis Center
Tue 10:01:56 PM 40.3550 -84.6361 64° Northeast 488 562 35,000  Level Indianapolis Center
Tue 10:02:58 PM 40.4172 -84.4756 63° Northeast 490 564 35,000  Level Indianapolis Center
Tue 10:03:59 PM 40.4778 -84.3156 64° Northeast 485 558 35,000  Level Indianapolis Center
Tue 10:05:00 PM 40.5383 -84.1553 64° Northeast 484 557 35,000  Level Indianapolis Center
Tue 10:06:01 PM 40.5986 -83.9936 64° Northeast 486 559 35,000  Level Indianapolis Center
Tue 10:07:02 PM 40.6603 -83.8322 63° Northeast 487 560 35,000  Level Indianapolis Center
Tue 10:08:03 PM 40.7189 -83.6708 64° Northeast 485 558 35,000  Level Indianapolis Center
Tue 10:08:21 PM 40.7397 -83.6169 63° Northeast 478 550 35,000  Level Cleveland Center
Tue 10:09:21 PM 40.7981 -83.4578 64° Northeast 484 557 35,000  Level Cleveland Center
Tue 10:10:21 PM 40.8542 -83.2953 65° Northeast 483 556 35,000  Level Cleveland Center
Tue 10:11:21 PM 40.8892 -83.1264 75° East 478 550 35,000  Level Cleveland Center
Tue 10:12:21 PM 40.9242 -82.9603 74° East 472 543 35,000  Level Cleveland Center
Tue 10:13:21 PM 40.9608 -82.7883 74° East 472 543 35,000  Level Cleveland Center
Tue 10:14:21 PM 40.9931 -82.6353 74° East 472 543 35,000  Level Cleveland Center
Tue 10:15:21 PM 41.0272 -82.4686 75° East 472 543 35,000  Level Cleveland Center
Tue 10:16:21 PM 41.0631 -82.2989 74° East 472 543 35,000  Level Cleveland Center
Tue 10:17:21 PM 41.0989 -82.1261 75° East 472 543 35,000  Level Cleveland Center
Tue 10:18:21 PM 41.1367 -81.9533 74° East 482 555 35,000  Level Cleveland Center
Tue 10:19:21 PM 41.1719 -81.7858 74° East 476 548 35,000  Level Cleveland Center
Tue 10:20:21 PM 41.2047 -81.6153 76° East 471 542 35,000  Level Cleveland Center
Tue 10:21:21 PM 41.2397 -81.4419 75° East 471 542 35,000  Level Cleveland Center
Tue 10:22:21 PM 41.2719 -81.2683 76° East 471 542 35,000  Level Cleveland Center
Tue 10:23:21 PM 41.3064 -81.1000 75° East 471 542 35,000  Level Cleveland Center
Tue 10:24:21 PM 41.3383 -80.9289 76° East 471 542 35,000  Level Cleveland Center
Tue 10:25:21 PM 41.3719 -80.7575 75° East 471 542 35,000  Level Cleveland Center
Tue 10:26:21 PM 41.4056 -80.5858 75° East 471 542 35,000  Level Cleveland Center
Tue 10:27:21 PM 41.4344 -80.4197 77° East 466 536 35,000  Level Cleveland Center
Tue 10:28:21 PM 41.4697 -80.2478 75° East 471 542 35,000  Level Cleveland Center
Tue 10:29:21 PM 41.5003 -80.0786 76° East 471 542 35,000  Level Cleveland Center
Tue 10:30:21 PM 41.5347 -79.8842 77° East 471 542 35,000  Level Cleveland Center
Tue 10:31:21 PM 41.5689 -79.7144 75° East 471 542 35,000  Level Cleveland Center
Tue 10:32:21 PM 41.5967 -79.5419 78° East 471 542 35,000  Level Cleveland Center
Tue 10:33:21 PM 41.6283 -79.3719 76° East 471 542 35,000  Level Cleveland Center
Tue 10:34:21 PM 41.6536 -79.1964 79° East 471 542 35,000  Level Cleveland Center
Tue 10:35:21 PM 41.6367 -79.0161 97° East 466 536 35,000  Level Cleveland Center
Tue 10:36:21 PM 41.6175 -78.8417 98° East 473 544 35,000  Level Cleveland Center
Tue 10:37:21 PM 41.5958 -78.6617 99° East 479 551 35,000  Level Cleveland Center
Tue 10:39:40 PM 41.5508 -78.2753 99° East 489 563 35,000  Level New York Center
Tue 10:40:40 PM 41.5269 -78.0922 100° East 489 563 35,000  Level New York Center
Tue 10:41:40 PM 41.5067 -77.9128 99° East 489 563 35,000  Level New York Center
Tue 10:42:40 PM 41.4794 -77.7381 102° East 489 563 35,000  Level New York Center
Tue 10:43:42 PM 41.4542 -77.5611 101° East 489 563 35,000 -101 Level New York Center
Tue 10:44:39 PM 41.4233 -77.3697 102° East 489 563 34,800 -555 Descending New York Center
Tue 10:45:41 PM 41.3997 -77.1931 100° East 489 563 33,900 -878 Descending New York Center
Tue 10:46:42 PM 41.3739 -77.0164 101° East 484 557 33,000 -1,373 Descending New York Center
Tue 10:47:39 PM 41.3475 -76.8397 101° East 484 557 31,200 -2,390 Descending New York Center
Tue 10:48:40 PM 41.3086 -76.6622 106° East 490 564 28,300 -2,900 Descending New York Center
Tue 10:49:39 PM 41.2606 -76.4925 111° Southeast 490 564 25,400 -2,850 Descending New York Center
Tue 10:50:40 PM 41.2181 -76.3344 110° East 495 570 22,600 -2,777 Descending New York Center
Tue 10:51:40 PM 41.1719 -76.1653 110° East 495 570 19,800 -2,628 Descending New York Center
Tue 10:52:41 PM 41.1311 -76.0050 109° East 481 554 17,300 -1,884 Descending New York Center
Tue 10:53:41 PM 41.0842 -75.8361 110° East 454 522 16,000 -645 Descending New York Center
Tue 10:54:42 PM 41.0428 -75.6844 110° East 441 507 16,000 -800 Level New York Center
Tue 10:55:41 PM 41.0044 -75.5497 111° Southeast 441 507 14,400 -2,118 Descending New York Center
Tue 10:56:41 PM 40.9586 -75.3925 111° Southeast 429 494 11,800 -2,085 Descending New York Center
Tue 10:57:39 PM 40.9278 -75.2753 109° East 395 455 10,300 -1,361 Descending New York Center
Tue 10:58:40 PM 40.8967 -75.1633 110° East 348 400 9,100 -650 Descending New York Center
Tue 10:59:39 PM 40.8633 -75.0458 111° Southeast 313 360 9,000 -50 Descending New York Center
Tue 11:00:40 PM 40.8319 -74.9369 111° Southeast 313 360 9,000  Level New York Center
Tue 11:01:40 PM 40.8144 -74.8372 103° East 318 366 9,000 -150 Level New York Center
Tue 11:02:40 PM 40.8375 -74.7097 77° East 309 356 8,700 -703 Descending New York Center
Tue 11:03:48 PM 40.8667 -74.5833 73° East 311 358 7,500 -984 Descending New York TRACON
Tue 11:04:42 PM 40.8822 -74.4900 78° East 311 358 6,700 -895 Descending New York Center
Tue 11:05:42 PM 40.8936 -74.3944 81° East 301 346 5,800 -1,059 Descending New York Center
Tue 11:06:41 PM 40.9011 -74.2769 85° East 289 333 4,600 -1,333 Descending New York Center
Tue 11:07:39 PM 40.8936 -74.1778 96° East 289 333 3,200 -1,315 Descending New York Center
Tue 11:07:54 PM 40.8833 -74.1500 116° Southeast 269 310 3,000 -800 Descending New York TRACON

Login

Don't have an account? Register now (free) for customized features, flight alerts, and more!